sensor_id;sensor_type;location;lat;lon;timestamp;P1;durP1;ratioP1;P2;durP2;ratioP2
5674;SDS011;2860;54.284;10.158;2022-11-20T00:01:06;4.97;;;4.78;;
5674;SDS011;2860;54.284;10.158;2022-11-20T00:03:32;7.63;;;5.00;;
5674;SDS011;2860;54.284;10.158;2022-11-20T00:06:01;4.32;;;4.20;;
5674;SDS011;2860;54.284;10.158;2022-11-20T00:08:28;5.03;;;4.82;;
5674;SDS011;2860;54.284;10.158;2022-11-20T00:10:54;5.95;;;5.50;;
5674;SDS011;2860;54.284;10.158;2022-11-20T00:13:19;5.60;;;5.22;;
5674;SDS011;2860;54.284;10.158;2022-11-20T00:15:45;6.63;;;6.13;;
5674;SDS011;2860;54.284;10.158;2022-11-20T00:18:10;5.97;;;5.63;;
5674;SDS011;2860;54.284;10.158;2022-11-20T00:20:36;6.70;;;6.30;;
5674;SDS011;2860;54.284;10.158;2022-11-20T00:23:01;5.28;;;5.00;;
5674;SDS011;2860;54.284;10.158;2022-11-20T00:25:27;5.35;;;5.07;;
5674;SDS011;2860;54.284;10.158;2022-11-20T00:27:52;6.20;;;5.80;;
5674;SDS011;2860;54.284;10.158;2022-11-20T00:30:18;6.55;;;5.97;;
5674;SDS011;2860;54.284;10.158;2022-11-20T00:32:43;6.53;;;6.10;;
5674;SDS011;2860;54.284;10.158;2022-11-20T00:35:09;7.28;;;6.65;;
5674;SDS011;2860;54.284;10.158;2022-11-20T00:37:34;6.72;;;6.28;;
5674;SDS011;2860;54.284;10.158;2022-11-20T00:40:00;7.28;;;6.78;;
5674;SDS011;2860;54.284;10.158;2022-11-20T00:42:25;5.60;;;5.30;;
5674;SDS011;2860;54.284;10.158;2022-11-20T00:44:51;6.13;;;5.72;;
5674;SDS011;2860;54.284;10.158;2022-11-20T00:47:17;6.40;;;5.90;;
5674;SDS011;2860;54.284;10.158;2022-11-20T00:49:42;7.53;;;6.93;;
5674;SDS011;2860;54.284;10.158;2022-11-20T00:52:08;7.18;;;6.65;;
5674;SDS011;2860;54.284;10.158;2022-11-20T00:54:33;7.13;;;6.70;;
5674;SDS011;2860;54.284;10.158;2022-11-20T00:56:59;8.45;;;6.50;;
5674;SDS011;2860;54.284;10.158;2022-11-20T00:59:24;7.63;;;6.93;;
5674;SDS011;2860;54.284;10.158;2022-11-20T01:01:50;7.57;;;6.97;;
5674;SDS011;2860;54.284;10.158;2022-11-20T01:04:15;7.07;;;6.55;;
5674;SDS011;2860;54.284;10.158;2022-11-20T01:06:41;12.45;;;6.68;;
5674;SDS011;2860;54.284;10.158;2022-11-20T01:09:09;7.00;;;6.55;;
5674;SDS011;2860;54.284;10.158;2022-11-20T01:11:38;7.65;;;6.95;;
5674;SDS011;2860;54.284;10.158;2022-11-20T01:14:07;7.57;;;6.32;;
5674;SDS011;2860;54.284;10.158;2022-11-20T01:16:36;9.10;;;7.85;;
5674;SDS011;2860;54.284;10.158;2022-11-20T01:19:06;7.65;;;7.03;;
5674;SDS011;2860;54.284;10.158;2022-11-20T01:21:36;12.18;;;7.68;;
5674;SDS011;2860;54.284;10.158;2022-11-20T01:24:03;7.63;;;7.13;;
5674;SDS011;2860;54.284;10.158;2022-11-20T01:26:33;7.30;;;6.75;;
5674;SDS011;2860;54.284;10.158;2022-11-20T01:29:00;7.05;;;6.55;;
5674;SDS011;2860;54.284;10.158;2022-11-20T01:31:30;7.78;;;6.97;;
5674;SDS011;2860;54.284;10.158;2022-11-20T01:33:58;6.90;;;6.43;;
5674;SDS011;2860;54.284;10.158;2022-11-20T01:36:26;8.70;;;6.90;;
5674;SDS011;2860;54.284;10.158;2022-11-20T01:38:54;7.47;;;6.88;;
5674;SDS011;2860;54.284;10.158;2022-11-20T01:41:21;7.10;;;6.22;;
5674;SDS011;2860;54.284;10.158;2022-11-20T01:44:06;7.28;;;6.68;;
5674;SDS011;2860;54.284;10.158;2022-11-20T01:46:32;8.18;;;7.47;;
5674;SDS011;2860;54.284;10.158;2022-11-20T01:49:04;7.93;;;7.10;;
5674;SDS011;2860;54.284;10.158;2022-11-20T01:51:42;6.95;;;6.32;;
5674;SDS011;2860;54.284;10.158;2022-11-20T01:54:12;7.00;;;6.47;;
5674;SDS011;2860;54.284;10.158;2022-11-20T01:56:41;7.53;;;6.93;;
5674;SDS011;2860;54.284;10.158;2022-11-20T01:59:09;8.15;;;7.38;;
5674;SDS011;2860;54.284;10.158;2022-11-20T02:01:37;7.97;;;7.32;;
5674;SDS011;2860;54.284;10.158;2022-11-20T02:04:04;10.63;;;7.25;;
5674;SDS011;2860;54.284;10.158;2022-11-20T02:06:32;10.43;;;6.03;;
5674;SDS011;2860;54.284;10.158;2022-11-20T02:09:03;5.78;;;5.47;;
5674;SDS011;2860;54.284;10.158;2022-11-20T02:11:29;7.25;;;6.57;;
5674;SDS011;2860;54.284;10.158;2022-11-20T02:13:55;7.15;;;6.45;;
5674;SDS011;2860;54.284;10.158;2022-11-20T02:16:23;6.00;;;5.65;;
5674;SDS011;2860;54.284;10.158;2022-11-20T02:18:51;5.95;;;5.57;;
5674;SDS011;2860;54.284;10.158;2022-11-20T02:26:30;6.57;;;6.18;;
5674;SDS011;2860;54.284;10.158;2022-11-20T02:28:58;6.13;;;5.63;;
5674;SDS011;2860;54.284;10.158;2022-11-20T02:31:25;5.75;;;5.50;;
5674;SDS011;2860;54.284;10.158;2022-11-20T02:33:54;5.43;;;5.22;;
5674;SDS011;2860;54.284;10.158;2022-11-20T02:36:21;6.38;;;5.93;;
5674;SDS011;2860;54.284;10.158;2022-11-20T02:38:47;5.53;;;5.18;;
5674;SDS011;2860;54.284;10.158;2022-11-20T02:41:14;6.95;;;6.30;;
5674;SDS011;2860;54.284;10.158;2022-11-20T02:43:39;6.25;;;5.63;;
5674;SDS011;2860;54.284;10.158;2022-11-20T02:46:06;6.30;;;5.88;;
5674;SDS011;2860;54.284;10.158;2022-11-20T02:48:32;5.72;;;5.43;;
5674;SDS011;2860;54.284;10.158;2022-11-20T02:50:57;6.43;;;5.97;;
5674;SDS011;2860;54.284;10.158;2022-11-20T02:53:23;6.57;;;6.13;;
5674;SDS011;2860;54.284;10.158;2022-11-20T02:55:48;6.55;;;5.95;;
5674;SDS011;2860;54.284;10.158;2022-11-20T02:58:14;5.82;;;5.53;;
5674;SDS011;2860;54.284;10.158;2022-11-20T03:00:39;7.13;;;6.50;;
5674;SDS011;2860;54.284;10.158;2022-11-20T03:03:05;6.47;;;5.97;;
5674;SDS011;2860;54.284;10.158;2022-11-20T03:05:30;6.35;;;5.95;;
5674;SDS011;2860;54.284;10.158;2022-11-20T03:07:56;7.07;;;6.57;;
5674;SDS011;2860;54.284;10.158;2022-11-20T03:10:21;7.38;;;6.70;;
5674;SDS011;2860;54.284;10.158;2022-11-20T03:12:47;7.03;;;6.30;;
5674;SDS011;2860;54.284;10.158;2022-11-20T03:15:17;7.50;;;6.57;;
5674;SDS011;2860;54.284;10.158;2022-11-20T03:17:42;7.03;;;6.50;;
5674;SDS011;2860;54.284;10.158;2022-11-20T03:20:08;8.85;;;6.78;;
5674;SDS011;2860;54.284;10.158;2022-11-20T03:22:34;7.10;;;6.50;;
5674;SDS011;2860;54.284;10.158;2022-11-20T03:24:59;6.65;;;6.15;;
5674;SDS011;2860;54.284;10.158;2022-11-20T03:27:25;7.32;;;6.55;;
5674;SDS011;2860;54.284;10.158;2022-11-20T03:29:50;6.93;;;6.32;;
5674;SDS011;2860;54.284;10.158;2022-11-20T03:32:16;7.68;;;6.97;;
5674;SDS011;2860;54.284;10.158;2022-11-20T03:34:41;6.10;;;5.60;;
5674;SDS011;2860;54.284;10.158;2022-11-20T03:37:07;5.40;;;5.10;;
5674;SDS011;2860;54.284;10.158;2022-11-20T03:39:32;9.15;;;5.90;;
5674;SDS011;2860;54.284;10.158;2022-11-20T03:41:58;7.05;;;6.30;;
5674;SDS011;2860;54.284;10.158;2022-11-20T03:44:23;6.47;;;5.95;;
5674;SDS011;2860;54.284;10.158;2022-11-20T03:46:49;6.78;;;6.38;;
5674;SDS011;2860;54.284;10.158;2022-11-20T03:49:14;6.05;;;5.65;;
5674;SDS011;2860;54.284;10.158;2022-11-20T03:51:40;6.47;;;5.82;;
5674;SDS011;2860;54.284;10.158;2022-11-20T03:54:06;7.70;;;6.07;;
5674;SDS011;2860;54.284;10.158;2022-11-20T03:56:34;6.60;;;6.13;;
5674;SDS011;2860;54.284;10.158;2022-11-20T03:59:02;7.13;;;6.45;;
5674;SDS011;2860;54.284;10.158;2022-11-20T04:01:32;5.38;;;4.90;;
5674;SDS011;2860;54.284;10.158;2022-11-20T04:03:58;8.68;;;6.30;;
5674;SDS011;2860;54.284;10.158;2022-11-20T04:06:28;6.65;;;6.20;;
5674;SDS011;2860;54.284;10.158;2022-11-20T04:08:56;7.30;;;6.68;;
5674;SDS011;2860;54.284;10.158;2022-11-20T04:11:23;6.47;;;6.03;;
5674;SDS011;2860;54.284;10.158;2022-11-20T04:13:54;6.40;;;5.80;;
5674;SDS011;2860;54.284;10.158;2022-11-20T04:16:21;6.25;;;5.75;;
5674;SDS011;2860;54.284;10.158;2022-11-20T04:18:51;6.43;;;6.00;;
5674;SDS011;2860;54.284;10.158;2022-11-20T04:21:20;8.77;;;6.20;;
5674;SDS011;2860;54.284;10.158;2022-11-20T04:23:45;6.80;;;6.28;;
5674;SDS011;2860;54.284;10.158;2022-11-20T04:26:11;5.97;;;5.57;;
5674;SDS011;2860;54.284;10.158;2022-11-20T04:28:37;6.50;;;6.03;;
5674;SDS011;2860;54.284;10.158;2022-11-20T04:31:10;6.30;;;5.90;;
5674;SDS011;2860;54.284;10.158;2022-11-20T04:33:37;9.75;;;6.32;;
5674;SDS011;2860;54.284;10.158;2022-11-20T04:36:13;8.13;;;6.95;;
5674;SDS011;2860;54.284;10.158;2022-11-20T04:38:41;7.65;;;7.05;;
5674;SDS011;2860;54.284;10.158;2022-11-20T04:41:08;7.10;;;6.60;;
5674;SDS011;2860;54.284;10.158;2022-11-20T04:43:45;7.57;;;7.00;;
5674;SDS011;2860;54.284;10.158;2022-11-20T04:46:13;7.60;;;6.78;;
5674;SDS011;2860;54.284;10.158;2022-11-20T04:48:39;13.48;;;6.97;;
5674;SDS011;2860;54.284;10.158;2022-11-20T04:51:04;6.82;;;6.38;;
5674;SDS011;2860;54.284;10.158;2022-11-20T04:53:30;11.50;;;6.88;;
5674;SDS011;2860;54.284;10.158;2022-11-20T04:56:03;7.95;;;7.45;;
5674;SDS011;2860;54.284;10.158;2022-11-20T04:58:33;7.57;;;7.10;;
5674;SDS011;2860;54.284;10.158;2022-11-20T05:01:15;7.97;;;7.30;;
5674;SDS011;2860;54.284;10.158;2022-11-20T05:03:43;7.15;;;6.65;;
5674;SDS011;2860;54.284;10.158;2022-11-20T05:06:10;7.93;;;6.63;;
5674;SDS011;2860;54.284;10.158;2022-11-20T05:08:37;6.07;;;5.50;;
5674;SDS011;2860;54.284;10.158;2022-11-20T05:11:03;6.43;;;6.03;;
5674;SDS011;2860;54.284;10.158;2022-11-20T05:13:34;6.45;;;5.85;;
5674;SDS011;2860;54.284;10.158;2022-11-20T05:16:03;6.10;;;5.70;;
5674;SDS011;2860;54.284;10.158;2022-11-20T05:18:30;6.47;;;6.07;;
5674;SDS011;2860;54.284;10.158;2022-11-20T05:20:58;6.78;;;6.28;;
5674;SDS011;2860;54.284;10.158;2022-11-20T05:23:24;5.85;;;5.40;;
5674;SDS011;2860;54.284;10.158;2022-11-20T05:25:53;6.20;;;5.70;;
5674;SDS011;2860;54.284;10.158;2022-11-20T05:28:20;5.70;;;5.40;;
5674;SDS011;2860;54.284;10.158;2022-11-20T05:30:46;5.97;;;5.40;;
5674;SDS011;2860;54.284;10.158;2022-11-20T05:33:12;5.72;;;5.43;;
5674;SDS011;2860;54.284;10.158;2022-11-20T05:35:37;5.43;;;5.22;;
5674;SDS011;2860;54.284;10.158;2022-11-20T05:38:03;5.75;;;5.25;;
5674;SDS011;2860;54.284;10.158;2022-11-20T05:40:28;4.95;;;4.75;;
5674;SDS011;2860;54.284;10.158;2022-11-20T05:42:54;5.85;;;5.38;;
5674;SDS011;2860;54.284;10.158;2022-11-20T05:45:19;5.15;;;4.85;;
5674;SDS011;2860;54.284;10.158;2022-11-20T05:47:45;4.80;;;4.60;;
5674;SDS011;2860;54.284;10.158;2022-11-20T05:50:10;4.85;;;4.65;;
5674;SDS011;2860;54.284;10.158;2022-11-20T05:52:36;4.40;;;4.20;;
5674;SDS011;2860;54.284;10.158;2022-11-20T05:55:01;3.40;;;3.30;;
5674;SDS011;2860;54.284;10.158;2022-11-20T05:57:27;3.97;;;3.67;;
5674;SDS011;2860;54.284;10.158;2022-11-20T05:59:53;3.42;;;3.33;;
5674;SDS011;2860;54.284;10.158;2022-11-20T06:02:18;2.97;;;2.97;;
5674;SDS011;2860;54.284;10.158;2022-11-20T06:04:44;3.65;;;3.55;;
5674;SDS011;2860;54.284;10.158;2022-11-20T06:07:09;3.00;;;2.88;;
5674;SDS011;2860;54.284;10.158;2022-11-20T06:09:35;3.20;;;3.10;;
5674;SDS011;2860;54.284;10.158;2022-11-20T06:12:00;2.90;;;2.80;;
5674;SDS011;2860;54.284;10.158;2022-11-20T06:14:26;4.18;;;3.88;;
5674;SDS011;2860;54.284;10.158;2022-11-20T06:16:51;4.32;;;4.13;;
5674;SDS011;2860;54.284;10.158;2022-11-20T06:19:17;5.40;;;4.90;;
5674;SDS011;2860;54.284;10.158;2022-11-20T06:21:42;6.15;;;5.75;;
5674;SDS011;2860;54.284;10.158;2022-11-20T06:24:11;7.55;;;6.90;;
5674;SDS011;2860;54.284;10.158;2022-11-20T06:26:36;7.35;;;6.53;;
5674;SDS011;2860;54.284;10.158;2022-11-20T06:29:02;7.28;;;6.45;;
5674;SDS011;2860;54.284;10.158;2022-11-20T06:31:28;32.05;;;8.05;;
5674;SDS011;2860;54.284;10.158;2022-11-20T06:33:53;11.10;;;7.60;;
5674;SDS011;2860;54.284;10.158;2022-11-20T06:36:20;40.03;;;7.78;;
5674;SDS011;2860;54.284;10.158;2022-11-20T06:38:47;13.60;;;8.40;;
5674;SDS011;2860;54.284;10.158;2022-11-20T06:41:14;9.57;;;7.30;;
5674;SDS011;2860;54.284;10.158;2022-11-20T06:43:41;33.80;;;9.27;;
5674;SDS011;2860;54.284;10.158;2022-11-20T06:46:08;10.27;;;8.07;;
5674;SDS011;2860;54.284;10.158;2022-11-20T06:48:35;34.53;;;9.32;;
5674;SDS011;2860;54.284;10.158;2022-11-20T06:51:02;112.30;;;9.23;;
5674;SDS011;2860;54.284;10.158;2022-11-20T06:53:29;40.05;;;8.75;;
5674;SDS011;2860;54.284;10.158;2022-11-20T06:55:55;21.15;;;8.05;;
5674;SDS011;2860;54.284;10.158;2022-11-20T06:58:21;16.63;;;7.13;;
5674;SDS011;2860;54.284;10.158;2022-11-20T07:00:47;9.82;;;7.38;;
5674;SDS011;2860;54.284;10.158;2022-11-20T07:03:12;13.02;;;7.78;;
5674;SDS011;2860;54.284;10.158;2022-11-20T07:05:38;13.45;;;8.25;;
5674;SDS011;2860;54.284;10.158;2022-11-20T07:08:04;11.60;;;8.10;;
5674;SDS011;2860;54.284;10.158;2022-11-20T07:10:31;12.77;;;8.32;;
5674;SDS011;2860;54.284;10.158;2022-11-20T07:12:57;10.82;;;9.40;;
5674;SDS011;2860;54.284;10.158;2022-11-20T07:15:23;11.30;;;9.70;;
5674;SDS011;2860;54.284;10.158;2022-11-20T07:17:50;9.18;;;8.18;;
5674;SDS011;2860;54.284;10.158;2022-11-20T07:20:15;10.13;;;9.10;;
5674;SDS011;2860;54.284;10.158;2022-11-20T07:22:41;10.38;;;9.27;;
5674;SDS011;2860;54.284;10.158;2022-11-20T07:25:07;8.90;;;8.15;;
5674;SDS011;2860;54.284;10.158;2022-11-20T07:27:33;10.00;;;9.02;;
5674;SDS011;2860;54.284;10.158;2022-11-20T07:29:59;9.63;;;8.63;;
5674;SDS011;2860;54.284;10.158;2022-11-20T07:32:25;8.60;;;7.75;;
5674;SDS011;2860;54.284;10.158;2022-11-20T07:34:50;8.20;;;7.47;;
5674;SDS011;2860;54.284;10.158;2022-11-20T07:37:16;8.10;;;7.43;;
5674;SDS011;2860;54.284;10.158;2022-11-20T07:39:42;6.85;;;6.40;;
5674;SDS011;2860;54.284;10.158;2022-11-20T07:42:07;6.60;;;6.10;;
5674;SDS011;2860;54.284;10.158;2022-11-20T07:44:34;7.28;;;6.75;;
5674;SDS011;2860;54.284;10.158;2022-11-20T07:46:59;6.72;;;6.22;;
5674;SDS011;2860;54.284;10.158;2022-11-20T07:49:25;6.32;;;5.72;;
5674;SDS011;2860;54.284;10.158;2022-11-20T07:51:51;5.88;;;5.53;;
5674;SDS011;2860;54.284;10.158;2022-11-20T07:54:18;6.65;;;6.18;;
5674;SDS011;2860;54.284;10.158;2022-11-20T07:56:44;6.72;;;6.07;;
5674;SDS011;2860;54.284;10.158;2022-11-20T07:59:10;5.85;;;5.57;;
5674;SDS011;2860;54.284;10.158;2022-11-20T08:01:36;5.50;;;5.03;;
5674;SDS011;2860;54.284;10.158;2022-11-20T08:04:02;5.28;;;4.88;;
5674;SDS011;2860;54.284;10.158;2022-11-20T08:06:28;5.22;;;4.93;;
5674;SDS011;2860;54.284;10.158;2022-11-20T08:08:54;4.93;;;4.57;;
5674;SDS011;2860;54.284;10.158;2022-11-20T08:11:19;4.93;;;4.63;;
5674;SDS011;2860;54.284;10.158;2022-11-20T08:14:03;2.58;;;2.50;;
5674;SDS011;2860;54.284;10.158;2022-11-20T08:16:38;2.47;;;2.38;;
5674;SDS011;2860;54.284;10.158;2022-11-20T08:19:11;3.08;;;2.88;;
5674;SDS011;2860;54.284;10.158;2022-11-20T08:21:38;3.65;;;3.42;;
5674;SDS011;2860;54.284;10.158;2022-11-20T08:24:04;3.15;;;2.92;;
5674;SDS011;2860;54.284;10.158;2022-11-20T08:26:30;3.15;;;3.05;;
5674;SDS011;2860;54.284;10.158;2022-11-20T08:28:56;2.60;;;2.53;;
5674;SDS011;2860;54.284;10.158;2022-11-20T08:31:22;2.58;;;2.38;;
5674;SDS011;2860;54.284;10.158;2022-11-20T08:33:49;2.97;;;2.88;;
5674;SDS011;2860;54.284;10.158;2022-11-20T08:36:15;3.50;;;3.35;;
5674;SDS011;2860;54.284;10.158;2022-11-20T08:38:40;3.38;;;3.38;;
5674;SDS011;2860;54.284;10.158;2022-11-20T08:41:06;2.92;;;2.80;;
5674;SDS011;2860;54.284;10.158;2022-11-20T08:43:52;2.90;;;2.80;;
5674;SDS011;2860;54.284;10.158;2022-11-20T08:46:19;2.90;;;2.90;;
5674;SDS011;2860;54.284;10.158;2022-11-20T08:48:45;3.20;;;3.10;;
5674;SDS011;2860;54.284;10.158;2022-11-20T08:51:11;3.40;;;3.30;;
5674;SDS011;2860;54.284;10.158;2022-11-20T08:53:37;3.60;;;3.40;;
5674;SDS011;2860;54.284;10.158;2022-11-20T08:56:03;3.20;;;3.15;;
5674;SDS011;2860;54.284;10.158;2022-11-20T08:58:29;4.97;;;4.68;;
5674;SDS011;2860;54.284;10.158;2022-11-20T09:00:54;4.38;;;4.28;;
5674;SDS011;2860;54.284;10.158;2022-11-20T09:03:20;4.82;;;4.63;;
5674;SDS011;2860;54.284;10.158;2022-11-20T09:05:46;7.72;;;4.10;;
5674;SDS011;2860;54.284;10.158;2022-11-20T09:08:11;6.32;;;4.43;;
5674;SDS011;2860;54.284;10.158;2022-11-20T09:10:37;3.60;;;3.50;;
5674;SDS011;2860;54.284;10.158;2022-11-20T09:13:04;4.70;;;4.40;;
5674;SDS011;2860;54.284;10.158;2022-11-20T09:15:30;4.15;;;3.95;;
5674;SDS011;2860;54.284;10.158;2022-11-20T09:17:59;4.40;;;4.20;;
5674;SDS011;2860;54.284;10.158;2022-11-20T09:20:27;4.22;;;4.03;;
5674;SDS011;2860;54.284;10.158;2022-11-20T09:22:53;3.55;;;3.45;;
5674;SDS011;2860;54.284;10.158;2022-11-20T09:25:19;3.88;;;3.78;;
5674;SDS011;2860;54.284;10.158;2022-11-20T09:27:45;4.13;;;3.92;;
5674;SDS011;2860;54.284;10.158;2022-11-20T09:30:11;3.78;;;3.55;;
5674;SDS011;2860;54.284;10.158;2022-11-20T09:32:41;3.65;;;3.55;;
5674;SDS011;2860;54.284;10.158;2022-11-20T09:35:07;4.10;;;3.90;;
5674;SDS011;2860;54.284;10.158;2022-11-20T09:37:34;4.80;;;4.47;;
5674;SDS011;2860;54.284;10.158;2022-11-20T09:39:59;4.32;;;3.97;;
5674;SDS011;2860;54.284;10.158;2022-11-20T09:45:16;5.93;;;5.63;;
5674;SDS011;2860;54.284;10.158;2022-11-20T09:48:16;6.07;;;5.70;;
5674;SDS011;2860;54.284;10.158;2022-11-20T09:53:59;5.82;;;5.53;;
5674;SDS011;2860;54.284;10.158;2022-11-20T09:56:29;6.35;;;5.95;;
5674;SDS011;2860;54.284;10.158;2022-11-20T09:58:57;6.32;;;5.80;;
5674;SDS011;2860;54.284;10.158;2022-11-20T10:01:30;6.72;;;6.22;;
5674;SDS011;2860;54.284;10.158;2022-11-20T10:04:13;6.00;;;5.65;;
5674;SDS011;2860;54.284;10.158;2022-11-20T10:09:37;8.40;;;7.70;;
5674;SDS011;2860;54.284;10.158;2022-11-20T10:23:37;4.65;;;4.55;;
5674;SDS011;2860;54.284;10.158;2022-11-20T10:29:19;4.53;;;4.32;;
5674;SDS011;2860;54.284;10.158;2022-11-20T10:32:00;4.80;;;4.60;;
5674;SDS011;2860;54.284;10.158;2022-11-20T10:34:33;5.32;;;5.03;;
5674;SDS011;2860;54.284;10.158;2022-11-20T10:37:12;6.45;;;6.05;;
5674;SDS011;2860;54.284;10.158;2022-11-20T10:40:02;6.05;;;5.70;;
5674;SDS011;2860;54.284;10.158;2022-11-20T10:42:59;4.30;;;4.10;;
5674;SDS011;2860;54.284;10.158;2022-11-20T10:47:56;8.65;;;5.25;;
5674;SDS011;2860;54.284;10.158;2022-11-20T10:50:24;5.47;;;5.20;;
5674;SDS011;2860;54.284;10.158;2022-11-20T10:55:39;6.45;;;5.95;;
5674;SDS011;2860;54.284;10.158;2022-11-20T10:58:13;8.23;;;5.30;;
5674;SDS011;2860;54.284;10.158;2022-11-20T11:00:46;5.32;;;5.03;;
5674;SDS011;2860;54.284;10.158;2022-11-20T11:03:23;6.05;;;5.63;;
5674;SDS011;2860;54.284;10.158;2022-11-20T11:05:58;5.15;;;4.85;;
5674;SDS011;2860;54.284;10.158;2022-11-20T11:08:34;5.50;;;5.10;;
5674;SDS011;2860;54.284;10.158;2022-11-20T11:11:07;6.28;;;5.88;;
5674;SDS011;2860;54.284;10.158;2022-11-20T11:14:04;6.30;;;5.80;;
5674;SDS011;2860;54.284;10.158;2022-11-20T11:16:31;6.60;;;6.00;;
5674;SDS011;2860;54.284;10.158;2022-11-20T11:19:06;6.78;;;6.18;;
5674;SDS011;2860;54.284;10.158;2022-11-20T11:21:38;5.68;;;5.38;;
5674;SDS011;2860;54.284;10.158;2022-11-20T11:24:18;8.05;;;7.25;;
5674;SDS011;2860;54.284;10.158;2022-11-20T11:29:20;6.55;;;6.13;;
5674;SDS011;2860;54.284;10.158;2022-11-20T11:31:46;6.60;;;6.05;;
5674;SDS011;2860;54.284;10.158;2022-11-20T11:34:13;9.25;;;8.32;;
5674;SDS011;2860;54.284;10.158;2022-11-20T11:36:40;7.38;;;6.88;;
5674;SDS011;2860;54.284;10.158;2022-11-20T11:39:08;7.22;;;6.82;;
5674;SDS011;2860;54.284;10.158;2022-11-20T11:41:39;11.77;;;7.25;;
5674;SDS011;2860;54.284;10.158;2022-11-20T11:44:15;6.05;;;5.75;;
5674;SDS011;2860;54.284;10.158;2022-11-20T11:47:19;6.97;;;6.55;;
5674;SDS011;2860;54.284;10.158;2022-11-20T11:52:49;6.63;;;6.13;;
5674;SDS011;2860;54.284;10.158;2022-11-20T11:58:29;4.80;;;4.68;;
5674;SDS011;2860;54.284;10.158;2022-11-20T12:04:05;3.88;;;3.78;;
5674;SDS011;2860;54.284;10.158;2022-11-20T12:07:15;3.78;;;3.65;;
5674;SDS011;2860;54.284;10.158;2022-11-20T12:10:03;3.58;;;3.47;;
5674;SDS011;2860;54.284;10.158;2022-11-20T12:12:30;4.93;;;4.63;;
5674;SDS011;2860;54.284;10.158;2022-11-20T12:15:03;4.45;;;4.10;;
5674;SDS011;2860;54.284;10.158;2022-11-20T12:17:34;3.50;;;3.38;;
5674;SDS011;2860;54.284;10.158;2022-11-20T12:20:00;3.85;;;3.60;;
5674;SDS011;2860;54.284;10.158;2022-11-20T12:30:18;11.23;;;4.13;;
5674;SDS011;2860;54.284;10.158;2022-11-20T12:35:32;4.22;;;3.80;;
5674;SDS011;2860;54.284;10.158;2022-11-20T12:47:51;3.50;;;3.40;;
5674;SDS011;2860;54.284;10.158;2022-11-20T12:56:50;6.90;;;6.13;;
5674;SDS011;2860;54.284;10.158;2022-11-20T13:04:16;8.48;;;7.68;;
5674;SDS011;2860;54.284;10.158;2022-11-20T13:06:54;12.60;;;7.55;;
5674;SDS011;2860;54.284;10.158;2022-11-20T13:09:21;11.88;;;9.27;;
5674;SDS011;2860;54.284;10.158;2022-11-20T13:11:57;7.35;;;6.65;;
5674;SDS011;2860;54.284;10.158;2022-11-20T13:17:35;5.53;;;5.07;;
5674;SDS011;2860;54.284;10.158;2022-11-20T13:20:14;6.13;;;5.75;;
5674;SDS011;2860;54.284;10.158;2022-11-20T13:22:44;8.88;;;7.63;;
5674;SDS011;2860;54.284;10.158;2022-11-20T13:25:25;8.68;;;7.80;;
5674;SDS011;2860;54.284;10.158;2022-11-20T13:27:51;10.88;;;8.95;;
5674;SDS011;2860;54.284;10.158;2022-11-20T13:30:19;16.25;;;11.30;;
5674;SDS011;2860;54.284;10.158;2022-11-20T13:32:50;13.82;;;8.55;;
5674;SDS011;2860;54.284;10.158;2022-11-20T13:35:25;8.65;;;7.78;;
5674;SDS011;2860;54.284;10.158;2022-11-20T13:38:05;9.27;;;7.68;;
5674;SDS011;2860;54.284;10.158;2022-11-20T13:40:36;8.68;;;7.88;;
5674;SDS011;2860;54.284;10.158;2022-11-20T13:43:19;5.07;;;4.68;;
5674;SDS011;2860;54.284;10.158;2022-11-20T13:46:02;5.07;;;4.68;;
5674;SDS011;2860;54.284;10.158;2022-11-20T13:48:33;4.57;;;4.38;;
5674;SDS011;2860;54.284;10.158;2022-11-20T13:59:31;3.90;;;3.78;;
5674;SDS011;2860;54.284;10.158;2022-11-20T14:02:16;7.55;;;6.05;;
5674;SDS011;2860;54.284;10.158;2022-11-20T14:04:45;5.20;;;5.00;;
5674;SDS011;2860;54.284;10.158;2022-11-20T14:07:13;4.60;;;4.25;;
5674;SDS011;2860;54.284;10.158;2022-11-20T14:09:48;4.10;;;3.97;;
5674;SDS011;2860;54.284;10.158;2022-11-20T14:12:32;4.63;;;4.43;;
5674;SDS011;2860;54.284;10.158;2022-11-20T14:14:59;4.93;;;4.72;;
5674;SDS011;2860;54.284;10.158;2022-11-20T14:17:32;5.68;;;5.43;;
5674;SDS011;2860;54.284;10.158;2022-11-20T14:20:00;6.93;;;6.30;;
5674;SDS011;2860;54.284;10.158;2022-11-20T14:22:29;50.55;;;25.60;;
5674;SDS011;2860;54.284;10.158;2022-11-20T14:25:03;13.80;;;10.27;;
5674;SDS011;2860;54.284;10.158;2022-11-20T14:27:53;10.43;;;7.95;;
5674;SDS011;2860;54.284;10.158;2022-11-20T14:30:21;8.15;;;7.25;;
5674;SDS011;2860;54.284;10.158;2022-11-20T14:32:48;9.48;;;8.63;;
5674;SDS011;2860;54.284;10.158;2022-11-20T14:35:25;17.60;;;9.77;;
5674;SDS011;2860;54.284;10.158;2022-11-20T14:37:53;9.70;;;8.68;;
5674;SDS011;2860;54.284;10.158;2022-11-20T14:40:35;9.25;;;8.38;;
5674;SDS011;2860;54.284;10.158;2022-11-20T14:43:02;10.02;;;9.05;;
5674;SDS011;2860;54.284;10.158;2022-11-20T14:45:42;9.68;;;8.85;;
5674;SDS011;2860;54.284;10.158;2022-11-20T14:48:08;8.38;;;7.80;;
5674;SDS011;2860;54.284;10.158;2022-11-20T14:50:35;8.48;;;7.78;;
5674;SDS011;2860;54.284;10.158;2022-11-20T14:53:03;8.15;;;7.57;;
5674;SDS011;2860;54.284;10.158;2022-11-20T14:55:32;7.00;;;6.50;;
5674;SDS011;2860;54.284;10.158;2022-11-20T14:58:02;7.07;;;6.57;;
5674;SDS011;2860;54.284;10.158;2022-11-20T15:01:20;7.50;;;6.80;;
5674;SDS011;2860;54.284;10.158;2022-11-20T15:03:39;7.90;;;7.20;;
5674;SDS011;2860;54.284;10.158;2022-11-20T15:06:06;8.25;;;7.55;;
5674;SDS011;2860;54.284;10.158;2022-11-20T15:08:35;7.18;;;6.72;;
5674;SDS011;2860;54.284;10.158;2022-11-20T15:11:01;8.15;;;7.40;;
5674;SDS011;2860;54.284;10.158;2022-11-20T15:13:31;6.65;;;6.28;;
5674;SDS011;2860;54.284;10.158;2022-11-20T15:15:57;6.93;;;6.50;;
5674;SDS011;2860;54.284;10.158;2022-11-20T15:18:31;5.90;;;5.57;;
5674;SDS011;2860;54.284;10.158;2022-11-20T15:21:03;6.38;;;6.00;;
5674;SDS011;2860;54.284;10.158;2022-11-20T15:23:34;9.25;;;8.25;;
5674;SDS011;2860;54.284;10.158;2022-11-20T15:25:59;10.13;;;8.55;;
5674;SDS011;2860;54.284;10.158;2022-11-20T15:30:54;8.00;;;7.05;;
5674;SDS011;2860;54.284;10.158;2022-11-20T15:33:21;7.90;;;7.18;;
5674;SDS011;2860;54.284;10.158;2022-11-20T15:35:46;7.20;;;6.72;;
5674;SDS011;2860;54.284;10.158;2022-11-20T15:38:12;7.88;;;7.28;;
5674;SDS011;2860;54.284;10.158;2022-11-20T15:40:38;7.75;;;7.25;;
5674;SDS011;2860;54.284;10.158;2022-11-20T15:43:03;8.00;;;7.47;;
5674;SDS011;2860;54.284;10.158;2022-11-20T15:45:31;10.30;;;8.98;;
5674;SDS011;2860;54.284;10.158;2022-11-20T15:48:05;10.55;;;9.45;;
5674;SDS011;2860;54.284;10.158;2022-11-20T15:50:49;9.10;;;7.88;;
5674;SDS011;2860;54.284;10.158;2022-11-20T15:53:21;9.65;;;8.75;;
5674;SDS011;2860;54.284;10.158;2022-11-20T15:55:47;14.32;;;10.13;;
5674;SDS011;2860;54.284;10.158;2022-11-20T15:58:13;17.05;;;11.13;;
5674;SDS011;2860;54.284;10.158;2022-11-20T16:00:38;18.42;;;11.65;;
5674;SDS011;2860;54.284;10.158;2022-11-20T16:03:04;17.48;;;12.98;;
5674;SDS011;2860;54.284;10.158;2022-11-20T16:05:30;11.55;;;10.20;;
5674;SDS011;2860;54.284;10.158;2022-11-20T16:07:56;23.52;;;15.10;;
5674;SDS011;2860;54.284;10.158;2022-11-20T16:10:21;11.70;;;10.50;;
5674;SDS011;2860;54.284;10.158;2022-11-20T16:12:47;13.43;;;11.73;;
5674;SDS011;2860;54.284;10.158;2022-11-20T16:15:32;17.95;;;13.23;;
5674;SDS011;2860;54.284;10.158;2022-11-20T16:18:10;17.40;;;12.82;;
5674;SDS011;2860;54.284;10.158;2022-11-20T16:20:38;17.98;;;12.65;;
5674;SDS011;2860;54.284;10.158;2022-11-20T16:23:04;18.33;;;13.27;;
5674;SDS011;2860;54.284;10.158;2022-11-20T16:25:30;14.05;;;12.45;;
5674;SDS011;2860;54.284;10.158;2022-11-20T16:27:56;21.50;;;13.52;;
5674;SDS011;2860;54.284;10.158;2022-11-20T16:30:21;19.40;;;13.90;;
5674;SDS011;2860;54.284;10.158;2022-11-20T16:32:47;19.75;;;16.33;;
5674;SDS011;2860;54.284;10.158;2022-11-20T16:35:13;21.83;;;15.02;;
5674;SDS011;2860;54.284;10.158;2022-11-20T16:37:38;24.85;;;15.70;;
5674;SDS011;2860;54.284;10.158;2022-11-20T16:40:04;22.25;;;17.02;;